Time;durP1;ratioP1;P1;durP2;ratioP2;P2;SDS_P1;SDS_P2;PMS_P1;PMS_P2;Temp;Humidity;BMP_temperature;BMP_pressure;BME280_temperature;BME280_humidity;BME280_pressure;Samples;Min_cycle;Max_cycle;Signal;HPM_P1;HPM_P2
2022/08/04 00:02:12;;;;;;;4.90;1.90;;;24.90;58.10;;;24.38;44.77;97157.97;5052843;28;20924;-71
2022/08/04 00:04:47;;;;;;;2.88;1.73;;;24.80;58.50;;;24.25;44.95;97157.25;5051131;28;20459;-71
2022/08/04 00:07:24;;;;;;;3.77;1.60;;;24.70;58.70;;;24.20;45.13;97152.09;5052649;28;20405;-71
2022/08/04 00:09:58;;;;;;;2.70;1.80;;;24.70;58.80;;;24.15;45.28;97141.47;5052767;28;20450;-71
2022/08/04 00:12:29;;;;;;;4.75;1.90;;;24.70;58.90;;;24.15;45.40;97148.81;5052771;28;20453;-71
2022/08/04 00:14:58;;;;;;;3.67;1.80;;;24.70;59.20;;;24.08;45.84;97149.41;5067614;28;20409;-71
2022/08/04 00:17:31;;;;;;;3.60;1.70;;;24.60;59.30;;;24.07;45.63;97149.72;5052693;28;20398;-72
2022/08/04 00:20:02;;;;;;;2.25;1.70;;;24.60;59.40;;;24.07;45.92;97149.72;5052687;28;20491;-72
2022/08/04 00:22:30;;;;;;;2.53;1.90;;;24.60;59.40;;;24.04;45.97;97153.94;5052598;28;20456;-72
2022/08/04 00:25:00;;;;;;;2.95;1.88;;;24.50;59.70;;;23.98;46.09;97143.69;5067576;28;20814;-72
2022/08/04 00:27:28;;;;;;;5.85;1.73;;;24.50;59.90;;;23.96;46.50;97154.06;5052493;28;20932;-72
2022/08/04 00:29:55;;;;;;;4.57;1.67;;;24.50;60.10;;;23.84;46.74;97149.47;5052355;28;20413;-72
2022/08/04 00:32:21;;;;;;;3.85;1.83;;;24.30;60.60;;;23.78;46.87;97142.75;5052345;28;20413;-72
2022/08/04 00:34:50;;;;;;;2.33;2.00;;;24.30;60.80;;;23.73;46.91;97148.38;5051932;28;20771;-72
2022/08/04 00:37:19;;;;;;;4.00;1.80;;;24.20;60.90;;;23.68;47.26;97145.94;5052321;28;20971;-72
2022/08/04 00:39:46;;;;;;;5.05;1.70;;;24.20;61.20;;;23.64;47.30;97145.81;5052246;28;20484;-72
2022/08/04 00:42:40;;;;;;;2.63;2.00;;;24.20;61.40;;;23.63;47.53;97146.16;5052252;28;20408;-72
2022/08/04 00:45:50;;;;;;;2.63;1.85;;;24.20;61.70;;;23.60;47.71;97144.16;5051916;28;20488;-72
2022/08/04 00:48:36;;;;;;;2.47;1.65;;;24.10;61.80;;;23.60;48.08;97141.44;5052105;28;20408;-72
2022/08/04 00:51:15;;;;;;;3.22;1.88;;;24.10;62.10;;;23.60;48.12;97141.44;5051898;28;20424;-70
2022/08/04 00:54:00;;;;;;;3.25;1.70;;;24.10;62.10;;;23.57;47.79;97145.59;5051545;28;20398;-72
2022/08/04 00:57:05;;;;;;;2.83;1.70;;;24.10;62.10;;;23.52;47.75;97143.94;5052000;28;20484;-71
2022/08/04 00:59:47;;;;;;;4.47;1.80;;;24.00;62.10;;;23.49;47.94;97139.19;5051869;28;20477;-71
2022/08/04 01:02:27;;;;;;;2.45;1.67;;;24.00;61.90;;;23.50;47.88;97140.78;5051773;28;20406;-71
2022/08/04 01:05:03;;;;;;;3.85;1.90;;;24.00;62.20;;;23.54;48.35;97143.56;5051398;28;20400;-71
2022/08/04 01:07:59;;;;;;;3.80;1.73;;;24.10;62.60;;;23.54;48.49;97143.56;5051926;28;20774;-71
2022/08/04 01:10:43;;;;;;;2.58;1.80;;;24.10;62.90;;;23.49;48.65;97144.59;5051573;28;20863;-70
2022/08/04 01:13:34;;;;;;;3.30;1.83;;;24.00;62.70;;;23.46;48.43;97137.13;5051252;28;20393;-72
2022/08/04 01:16:06;;;;;;;3.08;1.90;;;24.00;62.80;;;23.42;48.40;97144.38;5051696;28;20868;-72
2022/08/04 01:18:45;;;;;;;1.83;1.63;;;24.00;62.80;;;23.38;48.51;97140.00;5050939;28;20786;-72
2022/08/04 01:21:56;;;;;;;1.95;1.50;;;23.90;62.90;;;23.37;48.62;97146.50;5051436;28;20454;-72
2022/08/04 01:24:43;;;;;;;3.60;1.73;;;23.90;63.00;;;23.34;48.55;97134.47;5051050;28;20460;-72
2022/08/04 01:27:17;;;;;;;4.18;1.90;;;23.80;62.90;;;23.25;48.87;97147.28;5051385;28;20414;-72
2022/08/04 01:29:50;;;;;;;5.03;1.70;;;23.70;63.30;;;23.21;48.93;97146.41;5051236;28;20401;-72
2022/08/04 01:32:26;;;;;;;2.03;1.50;;;23.70;63.60;;;23.09;49.11;97143.69;5051203;28;20409;-71
2022/08/04 01:34:59;;;;;;;3.67;1.63;;;23.60;63.90;;;23.02;49.40;97140.78;5050736;28;20439;-71
2022/08/04 01:37:40;;;;;;;2.33;1.58;;;23.60;64.00;;;22.98;49.48;97137.19;5051316;28;20724;-70
2022/08/04 01:40:07;;;;;;;2.60;1.60;;;23.50;64.00;;;22.99;49.03;97138.75;5051089;28;20401;-73
2022/08/04 01:42:35;;;;;;;5.57;1.67;;;23.50;63.80;;;22.95;49.24;97135.94;5050957;28;20481;-73
2022/08/04 01:45:06;;;;;;;2.67;1.70;;;23.50;63.90;;;22.96;49.07;97134.03;5050597;28;20458;-72
2022/08/04 01:47:36;;;;;;;3.10;1.60;;;23.50;63.80;;;22.92;49.06;97128.53;5051038;28;20425;-72
2022/08/04 01:50:07;;;;;;;1.95;1.58;;;23.40;63.90;;;22.85;49.34;97128.31;5050944;28;20883;-72
2022/08/04 01:52:35;;;;;;;2.10;1.60;;;23.40;64.00;;;22.87;49.06;97127.94;5050945;28;20492;-72
2022/08/04 01:55:08;;;;;;;4.17;1.80;;;23.40;63.80;;;22.86;48.74;97126.38;5050457;28;20885;-72
2022/08/04 01:57:36;;;;;;;1.65;1.52;;;23.40;63.50;;;22.85;48.60;97122.13;5050860;28;20405;-72
2022/08/04 02:00:05;;;;;;;5.10;1.70;;;23.40;64.10;;;22.88;48.34;97134.91;5050581;28;20405;-72
2022/08/04 02:02:32;;;;;;;1.45;1.30;;;23.40;63.00;;;22.85;48.36;97133.69;5066127;28;20425;-73
2022/08/04 02:04:58;;;;;;;3.33;1.63;;;23.40;63.10;;;22.90;49.20;97132.69;5050315;28;20440;-72
2022/08/04 02:07:44;;;;;;;2.55;1.55;;;23.40;63.70;;;22.88;49.61;97132.22;5050733;28;20401;-72
2022/08/04 02:10:25;;;;;;;3.60;1.50;;;23.40;64.20;;;22.86;49.89;97123.66;5050621;28;20402;-72
2022/08/04 02:13:09;;;;;;;1.90;1.55;;;23.50;64.80;;;22.84;50.05;97134.81;5050055;28;20424;-72
2022/08/04 02:15:51;;;;;;;4.75;2.00;;;23.40;64.90;;;22.84;50.01;97128.63;5050626;28;20673;-72
2022/08/04 02:18:23;;;;;;;3.28;1.60;;;23.40;64.90;;;22.75;50.05;97120.63;5050513;28;20401;-72
2022/08/04 02:20:57;;;;;;;2.40;1.50;;;23.30;65.10;;;22.66;50.20;97131.50;5050289;28;20417;-72
2022/08/04 02:23:33;;;;;;;2.25;1.55;;;23.20;65.70;;;22.63;49.86;97120.59;5050168;28;20460;-72
2022/08/04 02:26:02;;;;;;;3.50;1.48;;;23.20;64.70;;;22.60;49.53;97121.25;5050418;28;20402;-72
2022/08/04 02:28:34;;;;;;;2.20;1.50;;;23.10;64.50;;;22.56;49.88;97123.03;5050408;28;20483;-72
2022/08/04 02:31:17;;;;;;;1.60;1.50;;;23.10;64.70;;;22.52;50.19;97117.53;5050120;28;20404;-72
2022/08/04 02:33:52;;;;;;;1.75;1.30;;;23.00;65.10;;;22.50;50.42;97127.06;5049896;28;20476;-72
2022/08/04 02:36:29;;;;;;;3.10;1.45;;;23.10;65.50;;;22.46;50.12;97121.56;5050356;28;20425;-72
2022/08/04 02:38:59;;;;;;;2.90;1.60;;;23.00;65.30;;;22.42;50.37;97117.97;5050283;28;20422;-72
2022/08/04 02:41:29;;;;;;;2.33;1.48;;;22.90;65.50;;;22.36;50.41;97120.09;5050179;28;20417;-71
2022/08/04 02:43:57;;;;;;;1.70;1.38;;;22.90;65.80;;;22.30;50.75;97124.13;5049734;28;20401;-71
2022/08/04 02:46:25;;;;;;;3.63;1.77;;;22.90;65.90;;;22.31;50.61;97114.91;5050204;28;20889;-71
2022/08/04 02:48:53;;;;;;;1.75;1.33;;;22.90;65.80;;;22.29;50.66;97113.66;5050251;28;20496;-71
2022/08/04 02:51:26;;;;;;;2.72;1.42;;;22.90;65.80;;;22.30;50.88;97115.25;5050090;28;20410;-72
2022/08/04 02:53:55;;;;;;;2.57;1.60;;;22.90;66.10;;;22.30;51.15;97115.25;5049601;28;20405;-71
2022/08/04 02:56:22;;;;;;;3.53;1.70;;;22.90;66.40;;;22.29;51.27;97114.44;5050054;28;20890;-72
2022/08/04 02:58:55;;;;;;;2.70;1.70;;;22.90;66.70;;;22.31;51.27;97114.13;5050049;28;20984;-71
2022/08/04 03:01:22;;;;;;;3.25;1.73;;;22.90;66.80;;;22.28;51.66;97102.09;5049862;28;20775;-71
2022/08/04 03:04:05;;;;;;;3.22;1.52;;;22.90;66.90;;;22.29;51.29;97110.97;5049598;28;20431;-71
2022/08/04 03:07:28;;;;;;;1.80;1.50;;;22.90;66.80;;;22.24;51.19;97108.50;5050055;28;20433;-71
2022/08/04 03:10:55;;;;;;;2.35;1.70;;;22.80;66.60;;;22.22;51.18;97103.44;5049945;28;20425;-71
2022/08/04 03:13:39;;;;;;;3.95;1.50;;;22.80;66.50;;;22.22;51.16;97100.72;5043713;28;20484;-72
2022/08/04 03:16:58;;;;;;;3.17;1.35;;;22.80;66.80;;;22.21;51.51;97101.84;5050147;28;20798;-71
2022/08/04 03:20:13;;;;;;;2.10;1.50;;;22.80;67.00;;;22.18;51.86;97107.88;5049923;28;20393;-71
2022/08/04 03:23:06;;;;;;;2.00;1.60;;;22.80;67.20;;;22.15;51.64;97110.47;5049915;28;20490;-71
2022/08/04 03:26:20;;;;;;;4.93;1.83;;;22.80;67.20;;;22.16;51.20;97112.06;5049857;28;20492;-71
2022/08/04 03:29:25;;;;;;;2.63;1.35;;;22.70;67.00;;;22.13;50.90;97116.19;5044608;28;20485;-71
2022/08/04 03:32:35;;;;;;;2.70;1.60;;;22.70;66.50;;;22.04;51.34;97114.69;5049701;28;20774;-71
2022/08/04 03:35:30;;;;;;;2.10;1.63;;;22.60;67.00;;;21.97;51.40;97118.72;5049301;28;20878;-71
2022/08/04 03:38:41;;;;;;;4.30;1.77;;;22.50;67.00;;;21.93;51.27;97114.31;5049714;28;20394;-71
2022/08/04 03:41:38;;;;;;;2.07;1.50;;;22.50;66.90;;;21.90;51.66;97117.66;5024959;28;20464;-72
2022/08/04 03:44:48;;;;;;;1.63;1.33;;;22.50;67.20;;;21.88;51.58;97125.25;5052911;28;20394;-71
2022/08/04 03:47:45;;;;;;;2.10;1.80;;;22.40;67.10;;;21.86;51.42;97127.53;5053245;28;20400;-71
2022/08/04 03:50:40;;;;;;;3.55;1.40;;;22.40;67.00;;;21.83;51.57;97120.09;5053190;28;20472;-71
2022/08/04 03:53:44;;;;;;;4.22;1.80;;;22.40;67.20;;;21.80;51.75;97118.81;5052677;28;20417;-71
2022/08/04 03:56:57;;;;;;;2.30;1.57;;;22.30;67.40;;;21.74;52.01;97130.13;5053132;28;20394;-71
2022/08/04 03:59:57;;;;;;;2.13;1.58;;;22.30;67.80;;;21.62;52.18;97114.72;5053130;28;20397;-71
2022/08/04 04:03:12;;;;;;;1.70;1.40;;;22.20;68.10;;;21.54;52.46;97115.56;5053117;28;20534;-70
2022/08/04 04:06:25;;;;;;;2.90;1.70;;;22.10;68.30;;;21.56;52.37;97118.72;5052949;28;20766;-71
2022/08/04 04:09:41;;;;;;;2.80;1.57;;;22.20;68.30;;;21.56;52.60;97111.44;5027359;28;20504;-71
2022/08/04 04:12:30;;;;;;;3.35;1.77;;;22.20;68.40;;;21.59;52.49;97118.06;5034954;28;20436;-71
2022/08/04 04:15:13;;;;;;;2.33;1.70;;;22.20;68.40;;;21.61;52.28;97115.81;5052422;28;20480;-71
2022/08/04 04:18:13;;;;;;;5.28;1.95;;;22.20;68.20;;;21.64;52.04;97115.19;5052862;28;20443;-71
2022/08/04 04:21:16;;;;;;;3.75;1.75;;;22.20;67.90;;;21.61;52.38;97113.91;5052501;28;20400;-71
2022/08/04 04:24:04;;;;;;;2.75;1.90;;;22.20;68.00;;;21.62;52.07;97106.63;5052046;28;20917;-71
2022/08/04 04:26:48;;;;;;;1.80;1.50;;;22.20;68.40;;;21.61;52.46;97110.44;5068092;28;20841;-71
2022/08/04 04:29:34;;;;;;;1.60;1.50;;;22.20;68.40;;;21.59;52.63;97115.34;5052482;28;20449;-71
2022/08/04 04:32:13;;;;;;;2.38;1.90;;;22.20;68.50;;;21.59;52.64;97109.97;5052340;28;20515;-72
2022/08/04 04:34:52;;;;;;;4.57;1.95;;;22.20;68.80;;;21.58;53.03;97122.66;5051885;28;20422;-73
2022/08/04 04:37:56;;;;;;;1.70;1.58;;;22.10;69.10;;;21.54;53.24;97118.25;5052403;28;20397;-72
2022/08/04 04:40:47;;;;;;;4.53;1.70;;;22.10;69.30;;;21.54;53.53;97116.34;5046718;28;20433;-72
2022/08/04 04:43:44;;;;;;;1.83;1.53;;;22.00;69.80;;;21.49;53.79;97113.06;5051911;28;20459;-72
2022/08/04 04:46:20;;;;;;;2.25;1.73;;;22.10;70.20;;;21.53;54.34;97113.97;5052306;28;20409;-72
2022/08/04 04:48:53;;;;;;;3.30;1.90;;;22.10;70.40;;;21.59;54.44;97113.47;5052159;28;20416;-72
2022/08/04 04:51:27;;;;;;;2.50;1.63;;;22.20;70.90;;;21.69;54.38;97124.97;5052028;28;20993;-72
2022/08/04 04:54:03;;;;;;;2.25;1.58;;;22.20;71.00;;;21.71;53.91;97125.44;5050346;28;20405;-72
2022/08/04 04:56:40;;;;;;;2.10;1.60;;;22.20;70.40;;;21.72;53.37;97129.69;5052062;28;20518;-72
2022/08/04 04:59:14;;;;;;;3.70;1.85;;;22.20;70.20;;;21.78;53.66;97129.16;5052113;28;20405;-72
2022/08/04 05:02:20;;;;;;;3.45;1.80;;;22.30;70.30;;;21.92;53.59;97134.28;5051905;28;20401;-72
2022/08/04 05:05:19;;;;;;;1.65;1.55;;;22.40;70.10;;;22.08;53.76;97131.81;5051447;28;20416;-72
2022/08/04 05:08:18;;;;;;;2.10;1.50;;;22.60;70.00;;;22.20;53.51;97129.13;5051801;28;20451;-70
2022/08/04 05:11:02;;;;;;;2.85;1.88;;;22.70;70.00;;;22.32;53.33;97124.59;5051722;28;20443;-72
2022/08/04 05:13:36;;;;;;;1.60;1.30;;;22.90;69.90;;;22.42;53.21;97128.75;5051264;28;20451;-73
2022/08/04 05:16:09;;;;;;;2.72;1.63;;;23.00;70.00;;;22.52;53.50;97127.53;5051753;28;20397;-72
2022/08/04 05:18:40;;;;;;;3.23;1.63;;;23.10;70.00;;;22.61;53.70;97136.34;5051649;28;20842;-72
2022/08/04 05:21:24;;;;;;;1.92;1.60;;;23.20;70.10;;;22.67;53.58;97129.59;5051538;28;20486;-72
2022/08/04 05:23:58;;;;;;;2.53;1.77;;;23.20;69.90;;;22.73;53.51;97128.25;5051025;28;20409;-72
2022/08/04 05:26:32;;;;;;;2.80;1.80;;;23.30;70.00;;;22.81;53.62;97137.38;5051469;28;20447;-72
2022/08/04 05:29:06;;;;;;;1.73;1.40;;;23.40;70.10;;;22.88;53.27;97137.63;5051621;28;20401;-72
2022/08/04 05:31:38;;;;;;;2.42;1.55;;;23.40;69.80;;;22.92;53.20;97128.53;5051190;28;20503;-72
2022/08/04 05:34:11;;;;;;;2.42;1.75;;;23.50;69.60;;;22.97;52.96;97130.22;5050840;28;20391;-72
2022/08/04 05:36:42;;;;;;;1.88;1.60;;;23.50;70.20;;;23.01;52.79;97137.28;5051226;28;20405;-73
2022/08/04 05:39:14;;;;;;;2.53;1.80;;;23.60;69.30;;;23.08;52.46;97134.81;5051295;28;20438;-72
2022/08/04 05:41:42;;;;;;;2.58;1.58;;;23.60;68.90;;;23.15;52.68;97142.38;5051097;28;20784;-72
2022/08/04 05:44:10;;;;;;;3.08;1.50;;;23.60;69.00;;;23.22;52.93;97139.88;5050742;28;20409;-72
2022/08/04 05:46:36;;;;;;;3.47;1.60;;;23.70;69.40;;;23.28;52.83;97141.22;5051037;28;20440;-73
2022/08/04 05:49:04;;;;;;;2.08;1.60;;;23.80;69.30;;;23.33;52.44;97146.41;5051074;28;20680;-72
2022/08/04 05:51:32;;;;;;;3.00;2.00;;;23.90;69.00;;;23.38;52.16;97138.03;5050792;28;20889;-72
2022/08/04 05:54:01;;;;;;;2.10;1.50;;;23.90;68.70;;;23.43;52.38;97137.03;5050468;28;20488;-71
2022/08/04 05:56:28;;;;;;;1.95;1.40;;;23.90;69.00;;;23.48;52.61;97134.91;5050990;28;20386;-72
2022/08/04 05:58:55;;;;;;;2.60;1.80;;;24.00;69.10;;;23.54;52.49;97138.16;5050848;28;20408;-72
2022/08/04 06:01:24;;;;;;;5.85;1.88;;;24.00;68.90;;;23.60;51.73;97142.22;5050583;28;20405;-73
2022/08/04 06:03:50;;;;;;;8.48;1.90;;;24.10;68.00;;;23.68;51.06;97140.53;5050126;28;20402;-72
2022/08/04 06:06:19;;;;;;;5.07;2.05;;;24.20;67.40;;;23.78;50.55;97135.41;5050374;28;20520;-73
2022/08/04 06:08:45;;;;;;;4.35;2.53;;;24.30;67.00;;;23.90;47.58;97140.81;5050583;28;20423;-72
2022/08/04 06:11:13;;;;;;;4.90;2.42;;;24.40;63.70;;;24.05;46.90;97141.19;5050539;28;20402;-72
2022/08/04 06:13:44;;;;;;;3.20;1.90;;;24.50;62.60;;;24.20;46.13;97140.50;5050123;28;20836;-72
2022/08/04 06:16:15;;;;;;;4.10;1.98;;;24.70;61.70;;;24.31;45.16;97138.84;5050538;28;20767;-72
2022/08/04 06:18:47;;;;;;;5.57;2.10;;;24.80;60.20;;;24.42;44.57;97144.56;5050679;28;20946;-73
2022/08/04 06:21:16;;;;;;;4.70;2.17;;;24.90;59.70;;;24.52;44.21;97135.91;5050411;28;20894;-72
2022/08/04 06:23:43;;;;;;;4.00;2.00;;;25.00;59.40;;;24.58;44.23;97140.72;5049980;28;20405;-72
2022/08/04 06:26:18;;;;;;;3.20;1.60;;;25.10;59.30;;;24.68;44.16;97140.22;5050490;28;20398;-73
2022/08/04 06:28:46;;;;;;;4.70;1.95;;;25.10;59.10;;;24.76;43.48;97140.38;5050597;28;20404;-73
2022/08/04 06:31:20;;;;;;;4.10;1.73;;;25.20;58.30;;;24.84;43.41;97134.00;5050061;28;20858;-72
2022/08/04 06:33:49;;;;;;;3.83;1.70;;;25.30;58.10;;;24.93;42.60;97140.06;5049956;28;20505;-72
2022/08/04 06:36:16;;;;;;;5.13;2.08;;;25.40;57.80;;;25.00;42.73;97140.25;5050157;28;20394;-71
2022/08/04 06:38:43;;;;;;;2.88;1.75;;;25.50;57.90;;;25.03;43.43;97148.44;5050253;28;20859;-72
2022/08/04 06:41:09;;;;;;;5.80;2.08;;;25.50;58.40;;;25.04;43.60;97143.81;5050251;28;20404;-72
2022/08/04 06:43:36;;;;;;;2.00;1.80;;;25.50;58.60;;;25.05;44.10;97134.56;5049604;28;20413;-72
2022/08/04 06:46:05;;;;;;;4.60;1.70;;;25.50;58.80;;;25.08;44.81;97141.19;5050196;28;20488;-72
2022/08/04 06:48:32;;;;;;;2.40;1.50;;;25.50;59.60;;;25.08;44.29;97139.28;5050250;28;20480;-72
2022/08/04 06:51:01;;;;;;;3.78;1.90;;;25.50;59.40;;;25.11;43.62;97138.56;5050143;28;20501;-72
2022/08/04 06:53:27;;;;;;;3.22;1.60;;;25.60;58.60;;;25.16;43.98;97145.66;5049699;28;20448;-72
2022/08/04 06:55:55;;;;;;;3.92;1.85;;;25.60;58.70;;;25.21;43.71;97142.66;5050217;28;20397;-72
2022/08/04 06:58:22;;;;;;;6.25;1.90;;;25.60;58.60;;;25.29;43.00;97144.41;5050177;28;20400;-72
2022/08/04 07:03:20;;;;;;;3.08;1.70;;;25.80;58.10;;;25.41;43.64;97152.44;5046934;28;20436;-71
2022/08/04 07:05:47;;;;;;;4.00;1.90;;;25.80;58.30;;;25.44;43.19;97149.00;5049905;28;20878;-71
2022/08/04 07:08:15;;;;;;;7.18;1.73;;;25.90;58.10;;;25.48;43.63;97147.19;5050109;28;20405;-71
2022/08/04 07:10:41;;;;;;;2.88;1.83;;;25.90;58.40;;;25.51;44.04;97149.16;5032009;28;20401;-71
2022/08/04 07:13:09;;;;;;;3.78;1.73;;;25.90;58.70;;;25.55;43.62;97147.34;5029645;28;20442;-71
2022/08/04 07:15:37;;;;;;;5.13;1.60;;;26.00;58.60;;;25.61;43.29;97145.16;5030019;28;20415;-71
2022/08/04 07:18:04;;;;;;;7.97;1.83;;;26.00;58.00;;;25.68;42.38;97151.53;5033068;28;20411;-71
2022/08/04 07:20:31;;;;;;;4.72;1.73;;;26.10;57.30;;;25.76;41.40;97150.53;5033921;28;20907;-71
2022/08/04 07:23:00;;;;;;;2.95;1.75;;;26.20;56.30;;;25.82;41.74;97151.81;5033488;28;20402;-71
2022/08/04 07:25:28;;;;;;;5.90;2.20;;;26.30;56.50;;;25.89;40.81;97143.03;5033601;28;20503;-71
2022/08/04 07:27:54;;;;;;;3.30;1.83;;;26.40;55.80;;;25.99;40.77;97141.69;5033901;28;20785;-71
2022/08/04 07:30:21;;;;;;;2.55;1.60;;;26.40;55.70;;;26.05;40.91;97148.41;5015957;28;20418;-71
2022/08/04 07:32:48;;;;;;;5.45;2.00;;;26.50;55.80;;;26.15;40.41;97142.41;5033159;28;20771;-71
2022/08/04 07:35:15;;;;;;;6.32;1.92;;;26.60;55.10;;;26.25;39.99;97143.72;5033562;28;20823;-71
2022/08/04 07:37:40;;;;;;;2.35;1.50;;;26.70;54.80;;;26.32;39.83;97144.69;5033699;28;20507;-71
2022/08/04 07:40:08;;;;;;;3.07;1.50;;;26.80;54.60;;;26.36;40.12;97142.06;5033570;28;20407;-71
2022/08/04 07:42:36;;;;;;;2.60;1.60;;;26.80;55.00;;;26.37;40.49;97146.34;5033454;28;20888;-72
2022/08/04 07:45:07;;;;;;;3.50;1.63;;;26.80;55.20;;;26.39;40.24;97146.78;5033014;28;20402;-71
2022/08/04 07:47:33;;;;;;;1.95;1.48;;;26.70;54.80;;;26.41;39.88;97139.03;5033478;28;20769;-71
2022/08/04 07:49:59;;;;;;;4.30;1.60;;;26.80;54.90;;;26.47;39.41;97146.53;5033361;28;20406;-71
2022/08/04 07:52:26;;;;;;;3.47;1.75;;;26.90;54.20;;;26.52;39.54;97142.75;5033257;28;20419;-71
2022/08/04 07:54:53;;;;;;;4.15;1.70;;;26.90;54.10;;;26.59;39.49;97148.31;5032973;28;20449;-71
2022/08/04 07:57:19;;;;;;;2.30;1.60;;;27.00;54.00;;;26.64;39.35;97142.56;5033429;28;20811;-71
2022/08/04 07:59:47;;;;;;;1.70;1.35;;;27.00;54.00;;;26.69;39.50;97136.06;5033285;28;20403;-71
2022/08/04 08:02:14;;;;;;;3.50;1.80;;;27.10;54.20;;;26.76;39.25;97142.41;5033038;28;20407;-71
2022/08/04 08:04:41;;;;;;;2.08;1.48;;;27.20;53.70;;;26.85;38.75;97142.13;5032408;28;20400;-71
2022/08/04 08:07:08;;;;;;;2.33;1.60;;;27.30;53.50;;;26.90;38.30;97139.94;5033060;28;20400;-71
2022/08/04 08:09:34;;;;;;;3.38;1.60;;;27.30;53.10;;;27.03;38.46;97129.66;5033028;28;20784;-71
2022/08/04 08:12:01;;;;;;;2.83;1.73;;;27.50;53.00;;;27.11;38.08;97139.50;5032914;28;20422;-71
2022/08/04 08:14:29;;;;;;;5.13;1.75;;;27.50;52.80;;;27.22;38.00;97134.22;5032435;28;20492;-71
2022/08/04 08:16:58;;;;;;;2.50;1.70;;;27.70;52.50;;;27.35;37.80;97132.88;5032875;28;20403;-71
2022/08/04 08:19:24;;;;;;;2.53;1.33;;;27.80;52.10;;;27.48;38.02;97134.22;5032770;28;20498;-71
2022/08/04 08:21:50;;;;;;;2.50;1.60;;;27.90;52.50;;;27.56;37.61;97132.41;5032764;28;20399;-71
2022/08/04 08:24:17;;;;;;;2.55;1.80;;;27.90;52.30;;;27.66;37.81;97134.50;5032240;28;20408;-71
2022/08/04 08:26:43;;;;;;;2.13;1.38;;;28.00;52.30;;;27.74;37.56;97136.94;5032722;28;20399;-71
2022/08/04 08:29:09;;;;;;;3.25;1.70;;;28.10;52.20;;;27.83;37.01;97130.44;5032512;28;20407;-71
2022/08/04 08:31:35;;;;;;;3.47;1.73;;;28.20;51.90;;;27.98;36.05;97132.97;5032469;28;20924;-71
2022/08/04 08:34:03;;;;;;;2.03;1.42;;;28.40;50.90;;;28.11;36.72;97130.78;5031972;28;20433;-70
2022/08/04 08:36:37;;;;;;;3.40;1.70;;;28.50;51.40;;;28.22;36.54;97128.22;5032641;28;20411;-71
2022/08/04 08:39:12;;;;;;;4.13;1.60;;;28.60;51.10;;;28.33;36.59;97131.84;5032470;28;20947;-71
2022/08/04 08:42:13;;;;;;;7.20;2.37;;;28.70;51.10;;;28.40;36.30;97131.91;5032401;28;20960;-71
2022/08/04 08:45:34;;;;;;;3.17;1.52;;;28.80;50.70;;;28.56;35.38;97137.13;5032126;28;20409;-71
2022/08/04 08:48:28;;;;;;;1.90;1.50;;;28.90;49.90;;;28.68;35.73;97132.19;5032266;28;20410;-71
2022/08/04 08:51:36;;;;;;;2.83;1.73;;;29.00;50.30;;;28.84;35.10;97135.47;5032258;28;20475;-71
2022/08/04 08:54:46;;;;;;;5.80;1.90;;;29.20;49.80;;;29.02;34.37;97134.84;5030721;28;20463;-71
2022/08/04 08:57:36;;;;;;;3.33;1.73;;;29.50;49.30;;;29.16;34.87;97134.97;5025241;28;20419;-71
2022/08/04 09:00:15;;;;;;;2.05;1.67;;;29.60;50.30;;;29.26;35.21;97128.78;5032064;28;20923;-71
2022/08/04 09:03:34;;;;;;;7.68;2.08;;;29.60;49.70;;;29.35;34.16;97137.44;5031452;28;20639;-71
2022/08/04 09:06:32;;;;;;;3.75;2.00;;;29.60;49.40;;;29.50;33.63;97141.03;5031967;28;20414;-71
2022/08/04 09:09:39;;;;;;;3.22;2.17;;;29.90;48.20;;;29.66;33.99;97140.75;5031783;28;20815;-71
2022/08/04 09:12:14;;;;;;;2.80;1.90;;;30.10;48.30;;;29.77;33.66;97133.41;5031585;28;20462;-71
2022/08/04 09:14:50;;;;;;;1.75;1.63;;;30.20;48.20;;;29.87;33.73;97135.41;5031199;28;20402;-71
2022/08/04 09:17:26;;;;;;;5.78;1.75;;;30.20;48.00;;;29.92;33.80;97137.78;5031638;28;20537;-71
2022/08/04 09:20:00;;;;;;;2.17;1.80;;;30.20;48.50;;;29.96;33.52;97139.38;5031630;28;20399;-71
2022/08/04 09:22:38;;;;;;;2.17;1.70;;;30.30;47.90;;;30.07;33.70;97136.69;5031407;28;20418;-71
2022/08/04 09:25:12;;;;;;;4.00;1.90;;;30.40;48.10;;;30.20;33.64;97132.44;5013499;28;20395;-71
2022/08/04 09:27:48;;;;;;;3.80;2.50;;;30.50;48.30;;;30.30;32.48;97136.34;5031428;28;20904;-71
2022/08/04 09:30:19;;;;;;;3.00;2.08;;;30.70;47.00;;;30.44;32.15;97139.16;5031360;28;20395;-71
2022/08/04 09:33:01;;;;;;;5.32;2.35;;;30.80;46.50;;;30.46;31.93;97138.75;5030678;28;20431;-71
2022/08/04 09:35:39;;;;;;;2.80;2.10;;;30.80;46.00;;;30.49;32.36;97137.97;5031196;28;20469;-71
2022/08/04 09:38:17;;;;;;;2.65;1.90;;;30.80;46.80;;;30.57;31.21;97131.38;5031160;28;20411;-72
2022/08/04 09:40:54;;;;;;;2.47;2.00;;;30.90;45.90;;;30.60;31.62;97127.91;5030552;28;20404;-71
2022/08/04 09:43:40;;;;;;;2.00;1.80;;;30.90;45.60;;;30.71;31.54;97128.69;5030810;28;20402;-71
2022/08/04 09:46:14;;;;;;;2.28;1.90;;;31.00;46.00;;;30.75;30.91;97122.03;5013289;28;20407;-72
2022/08/04 09:48:51;;;;;;;2.20;1.70;;;31.00;44.90;;;30.87;30.33;97125.56;5030999;28;20733;-71
2022/08/04 09:51:50;;;;;;;8.35;2.47;;;31.10;44.80;;;30.90;29.04;97125.56;5030845;28;20399;-72
2022/08/04 09:54:26;;;;;;;3.47;2.13;;;31.30;42.90;;;30.96;29.29;97124.00;5012627;28;20414;-71
2022/08/04 09:56:59;;;;;;;2.55;1.60;;;31.30;43.20;;;31.08;28.83;97120.91;5030983;28;20746;-71
2022/08/04 09:59:35;;;;;;;3.30;1.75;;;31.40;42.90;;;31.21;29.47;97115.03;5030903;28;20474;-71
2022/08/04 10:02:07;;;;;;;3.57;1.90;;;31.50;43.30;;;31.41;29.67;97114.22;5030741;28;20403;-71
2022/08/04 10:04:35;;;;;;;2.00;1.80;;;31.80;43.50;;;31.61;29.12;97111.84;5030320;28;20396;-71
2022/08/04 10:07:28;;;;;;;2.07;1.50;;;32.10;43.00;;;31.80;27.95;97111.38;5030814;28;20402;-72
2022/08/04 10:10:11;;;;;;;8.00;2.20;;;32.30;41.70;;;32.02;26.41;97123.06;5030751;28;20395;-72
2022/08/04 10:12:54;;;;;;;1.60;1.50;;;32.50;40.00;;;32.22;26.64;97106.94;5030682;28;20469;-72
2022/08/04 10:15:31;;;;;;;2.25;1.60;;;32.60;40.30;;;32.41;27.77;97102.91;5030827;28;20409;-72
2022/08/04 10:18:16;;;;;;;3.10;1.80;;;32.80;41.40;;;32.60;26.15;97103.19;5030958;28;20399;-73
2022/08/04 10:20:59;;;;;;;2.45;1.90;;;33.00;39.90;;;32.79;26.44;97093.66;5030507;28;20469;-73
2022/08/04 10:23:47;;;;;;;2.70;1.52;;;33.10;39.80;;;32.84;26.54;97093.25;5029888;28;20433;-72
2022/08/04 10:26:26;;;;;;;2.22;1.80;;;33.10;40.00;;;32.83;26.63;97091.69;5030459;28;20461;-73
2022/08/04 10:28:59;;;;;;;4.35;1.80;;;33.10;40.40;;;32.90;27.05;97085.34;5030424;28;20407;-72
2022/08/04 10:31:32;;;;;;;2.05;1.63;;;33.20;40.80;;;33.01;27.27;97083.28;5030481;28;20442;-72
2022/08/04 10:34:06;;;;;;;3.45;2.00;;;33.20;41.10;;;33.12;26.95;97091.44;5030049;28;20400;-72
2022/08/04 10:36:44;;;;;;;2.17;1.48;;;33.30;40.80;;;33.27;27.30;97093.66;5030378;28;20764;-73
2022/08/04 10:39:17;;;;;;;2.45;1.85;;;33.40;41.10;;;33.41;27.02;97073.53;5030372;28;20395;-72
2022/08/04 10:41:59;;;;;;;2.30;1.60;;;33.60;41.10;;;33.49;26.50;97069.50;5030184;28;20399;-72
2022/08/04 10:44:36;;;;;;;4.45;1.88;;;33.70;40.40;;;33.62;26.62;97067.00;5012021;28;20888;-72
2022/08/04 10:47:08;;;;;;;3.20;1.60;;;33.80;40.40;;;33.76;25.90;97066.84;5030169;28;20403;-72
2022/08/04 10:49:42;;;;;;;1.60;1.50;;;33.90;39.80;;;33.90;25.32;97074.16;5030215;28;20445;-73
2022/08/04 10:52:16;;;;;;;3.55;1.80;;;34.10;39.20;;;33.94;25.25;97069.41;5031604;28;20421;-72
2022/08/04 10:54:51;;;;;;;2.83;1.90;;;34.10;39.00;;;34.00;25.54;97068.53;5034026;28;20394;-72
2022/08/04 10:57:28;;;;;;;4.38;1.98;;;34.20;39.10;;;33.90;24.38;97080.44;5034302;28;20395;-72
2022/08/04 11:00:00;;;;;;;3.70;1.75;;;34.20;37.50;;;33.92;24.74;97075.28;5034164;28;20402;-72
2022/08/04 11:02:45;;;;;;;4.88;1.90;;;34.20;37.90;;;33.90;24.26;97077.69;5034128;28;20461;-72
2022/08/04 11:05:26;;;;;;;2.55;1.77;;;34.20;37.70;;;34.04;24.29;97065.75;5034112;28;20391;-72
2022/08/04 11:08:00;;;;;;;2.30;1.65;;;34.30;37.80;;;34.10;24.46;97064.06;5034153;28;20399;-72
2022/08/04 11:10:33;;;;;;;1.90;1.40;;;34.30;38.50;;;34.21;25.00;97061.19;5034256;28;20403;-72